PAA116 KJFK-RJTT
Flight info
| Callsign | PAA116 |
|---|---|
| Flight time | N/A |
| Altitude | 34000 |
| Route | GAYEL Q812 SYR DCT RAKAM DCT YTA DCT YUY DCT MOGAG DCT 56N090W 61N100W 64N110W/N0481F360 66N120W 67N130W DCT POTAT NCA30 OME/N0488F380 R338 HEDMI M523 HUMSA/N0487F400 M523 IPGUD Y800 ESNIP Y810 AKRIT Y807 POLIX |
| Aircraft | B772/H-SDE2E3FGHIJ5LORVWXY/LB1D1 |
Departure
| Time | 2026-04-30 18:49 |
|---|---|
| Airport | John F. Kennedy International Airport (KJFK) |
Arrival
| Time | N/A |
|---|---|
| Airport | Tokyo Haneda International Airport (RJTT) |
| Time | Latitude | Longitude | Altitude | Speed | Heading |
|---|---|---|---|---|---|
| 2026-04-30 18:18 | 40.63716 | -73.78006 | 29 ft | 0 kts | 264° |
| 2026-04-30 18:21 | 40.63716 | -73.78005 | 29 ft | 0 kts | 264° |
| 2026-04-30 18:34 | 40.63717 | -73.77983 | 30 ft | 4 kts | 264° |
| 2026-04-30 18:35 | 40.63722 | -73.77950 | 30 ft | 4 kts | 240° |
| 2026-04-30 18:35 | 40.63739 | -73.77925 | 30 ft | 4 kts | 208° |
| 2026-04-30 18:35 | 40.63764 | -73.77914 | 30 ft | 4 kts | 180° |
| 2026-04-30 18:36 | 40.63739 | -73.77908 | 30 ft | 3 kts | 173° |
| 2026-04-30 18:36 | 40.63735 | -73.77908 | 30 ft | 3 kts | 173° |
| 2026-04-30 18:39 | 40.63734 | -73.77908 | 25 ft | 1 kts | 173° |
| 2026-04-30 18:39 | 40.63710 | -73.77904 | 29 ft | 6 kts | 173° |
| 2026-04-30 18:40 | 40.63663 | -73.77897 | 29 ft | 7 kts | 173° |
| 2026-04-30 18:40 | 40.63617 | -73.77888 | 27 ft | 7 kts | 168° |
| 2026-04-30 18:40 | 40.63576 | -73.77860 | 30 ft | 7 kts | 136° |
| 2026-04-30 18:40 | 40.63548 | -73.77809 | 28 ft | 7 kts | 123° |
| 2026-04-30 18:41 | 40.63523 | -73.77755 | 27 ft | 7 kts | 120° |
| 2026-04-30 18:41 | 40.63516 | -73.77735 | 27 ft | 2 kts | 112° |
| 2026-04-30 18:41 | 40.63517 | -73.77705 | 27 ft | 6 kts | 72° |
| 2026-04-30 18:41 | 40.63564 | -73.77661 | 27 ft | 12 kts | 29° |
| 2026-04-30 18:42 | 40.63654 | -73.77594 | 25 ft | 18 kts | 30° |
| 2026-04-30 18:42 | 40.63891 | -73.77408 | 27 ft | 20 kts | 30° |
| 2026-04-30 18:42 | 40.64011 | -73.77314 | 28 ft | 20 kts | 31° |
| 2026-04-30 18:45 | 40.64814 | -73.76750 | 31 ft | 7 kts | 31° |
| 2026-04-30 18:45 | 40.64854 | -73.76717 | 29 ft | 7 kts | 32° |
| 2026-04-30 18:45 | 40.64895 | -73.76685 | 31 ft | 7 kts | 31° |
| 2026-04-30 18:46 | 40.64940 | -73.76650 | 30 ft | 7 kts | 31° |
| 2026-04-30 18:46 | 40.64984 | -73.76614 | 31 ft | 7 kts | 31° |
| 2026-04-30 18:46 | 40.65029 | -73.76579 | 29 ft | 8 kts | 31° |
| 2026-04-30 18:46 | 40.65082 | -73.76538 | 30 ft | 9 kts | 32° |
| 2026-04-30 18:47 | 40.65100 | -73.76474 | 31 ft | 8 kts | 109° |
| 2026-04-30 18:47 | 40.65075 | -73.76414 | 27 ft | 7 kts | 122° |
| 2026-04-30 18:47 | 40.65047 | -73.76360 | 27 ft | 7 kts | 129° |
| 2026-04-30 18:47 | 40.65013 | -73.76363 | 27 ft | 3 kts | 211° |
| 2026-04-30 18:48 | 40.65012 | -73.76364 | 27 ft | 0 kts | 211° |
| 2026-04-30 18:48 | 40.64998 | -73.76375 | 27 ft | 17 kts | 211° |
| 2026-04-30 18:48 | 40.64675 | -73.76630 | 26 ft | 91 kts | 211° |
| 2026-04-30 18:48 | 40.63939 | -73.77205 | 28 ft | 156 kts | 211° |
| 2026-04-30 18:49 | 40.62878 | -73.78048 | 325 ft | 186 kts | 211° |
| 2026-04-30 18:49 | 40.61755 | -73.78926 | 1141 ft | 193 kts | 212° |
| 2026-04-30 18:49 | 40.60552 | -73.79887 | 1781 ft | 209 kts | 213° |
| 2026-04-30 18:49 | 40.59308 | -73.80852 | 2365 ft | 206 kts | 207° |
| 2026-04-30 18:50 | 40.57932 | -73.81363 | 2817 ft | 208 kts | 184° |
| 2026-04-30 18:50 | 40.56453 | -73.81020 | 2933 ft | 230 kts | 155° |
| 2026-04-30 18:50 | 40.55226 | -73.79630 | 3187 ft | 243 kts | 123° |
| 2026-04-30 18:50 | 40.54646 | -73.77510 | 3478 ft | 255 kts | 93° |
| 2026-04-30 18:51 | 40.54918 | -73.75168 | 3805 ft | 263 kts | 64° |
| 2026-04-30 18:51 | 40.55924 | -73.73190 | 4327 ft | 262 kts | 49° |
| 2026-04-30 18:51 | 40.57126 | -73.71321 | 4665 ft | 275 kts | 47° |
| 2026-04-30 18:51 | 40.58387 | -73.69397 | 5244 ft | 279 kts | 47° |
| 2026-04-30 18:52 | 40.59645 | -73.67462 | 5883 ft | 281 kts | 47° |
| 2026-04-30 18:52 | 40.60925 | -73.65487 | 6481 ft | 285 kts | 47° |
| 2026-04-30 18:52 | 40.62347 | -73.63710 | 6964 ft | 285 kts | 28° |
| 2026-04-30 18:52 | 40.64205 | -73.62852 | 7389 ft | 284 kts | 2° |
| 2026-04-30 18:53 | 40.66189 | -73.62729 | 7878 ft | 286 kts | 358° |
| 2026-04-30 18:53 | 40.68167 | -73.62672 | 8416 ft | 290 kts | 357° |
| 2026-04-30 18:53 | 40.70205 | -73.62609 | 8962 ft | 294 kts | 357° |
| 2026-04-30 18:53 | 40.72268 | -73.62539 | 9491 ft | 298 kts | 357° |
| 2026-04-30 18:54 | 40.74364 | -73.62459 | 9986 ft | 303 kts | 357° |
| 2026-04-30 18:54 | 40.76487 | -73.62435 | 10287 ft | 307 kts | 348° |
| 2026-04-30 18:54 | 40.78450 | -73.63378 | 10349 ft | 307 kts | 317° |
| 2026-04-30 18:54 | 40.80010 | -73.65336 | 10464 ft | 315 kts | 309° |
| 2026-04-30 18:55 | 40.81560 | -73.67501 | 10641 ft | 334 kts | 310° |
| 2026-04-30 18:55 | 40.85073 | -73.71985 | 11342 ft | 362 kts | 314° |
| 2026-04-30 18:55 | 40.86913 | -73.74187 | 11945 ft | 368 kts | 314° |
| 2026-04-30 18:56 | 40.90810 | -73.78695 | 13370 ft | 375 kts | 314° |
| 2026-04-30 18:56 | 40.92796 | -73.80956 | 13987 ft | 378 kts | 314° |
| 2026-04-30 18:56 | 40.94810 | -73.83242 | 14559 ft | 382 kts | 314° |
| 2026-04-30 18:57 | 40.98879 | -73.87852 | 15753 ft | 388 kts | 314° |
| 2026-04-30 18:57 | 41.00937 | -73.90187 | 16337 ft | 391 kts | 313° |
| 2026-04-30 18:57 | 41.03011 | -73.92541 | 16901 ft | 395 kts | 313° |
| 2026-04-30 18:58 | 41.07200 | -73.97305 | 18084 ft | 402 kts | 313° |
| 2026-04-30 18:58 | 41.09329 | -73.99731 | 18520 ft | 406 kts | 313° |
| 2026-04-30 18:58 | 41.11486 | -74.02191 | 18985 ft | 410 kts | 313° |
| 2026-04-30 18:59 | 41.15834 | -74.07148 | 19970 ft | 414 kts | 313° |
| 2026-04-30 19:00 | 41.22424 | -74.14685 | 21356 ft | 422 kts | 313° |
| 2026-04-30 19:00 | 41.24656 | -74.17244 | 21822 ft | 424 kts | 312° |
| 2026-04-30 19:00 | 41.29124 | -74.22371 | 22735 ft | 429 kts | 312° |
| 2026-04-30 19:01 | 41.33677 | -74.27605 | 23565 ft | 436 kts | 312° |
| 2026-04-30 19:01 | 41.35983 | -74.30261 | 23928 ft | 438 kts | 312° |
| 2026-04-30 19:02 | 41.40309 | -74.35900 | 24723 ft | 432 kts | 303° |
| 2026-04-30 19:02 | 41.43691 | -74.42462 | 25466 ft | 427 kts | 293° |
| 2026-04-30 19:03 | 41.46613 | -74.49389 | 26122 ft | 431 kts | 294° |
| 2026-04-30 19:03 | 41.49609 | -74.56356 | 26763 ft | 435 kts | 294° |
| 2026-04-30 19:04 | 41.52628 | -74.63385 | 27373 ft | 438 kts | 294° |
| 2026-04-30 19:04 | 41.55649 | -74.70442 | 27947 ft | 441 kts | 294° |
| 2026-04-30 19:05 | 41.58929 | -74.77452 | 28478 ft | 451 kts | 302° |
| 2026-04-30 19:05 | 41.63200 | -74.83761 | 28832 ft | 465 kts | 311° |
| 2026-04-30 19:06 | 41.68186 | -74.89319 | 29292 ft | 470 kts | 314° |
| 2026-04-30 19:06 | 41.70726 | -74.92080 | 29520 ft | 470 kts | 314° |
| 2026-04-30 19:06 | 41.75792 | -74.97625 | 30074 ft | 469 kts | 314° |
| 2026-04-30 19:07 | 41.80820 | -75.03195 | 30496 ft | 468 kts | 314° |
| 2026-04-30 19:07 | 41.83330 | -75.05992 | 30714 ft | 469 kts | 314° |
| 2026-04-30 19:08 | 41.88316 | -75.11553 | 31173 ft | 468 kts | 314° |
| 2026-04-30 19:08 | 41.93327 | -75.17152 | 31570 ft | 468 kts | 314° |
| 2026-04-30 19:08 | 41.95835 | -75.19958 | 31750 ft | 468 kts | 314° |
| 2026-04-30 19:09 | 42.00805 | -75.25530 | 32129 ft | 468 kts | 314° |
| 2026-04-30 19:09 | 42.03270 | -75.28291 | 32338 ft | 468 kts | 314° |
| 2026-04-30 19:09 | 42.05800 | -75.31070 | 32521 ft | 470 kts | 316° |
| 2026-04-30 19:10 | 42.11371 | -75.35852 | 32760 ft | 480 kts | 324° |
| 2026-04-30 19:10 | 42.17165 | -75.40358 | 33153 ft | 479 kts | 324° |
| 2026-04-30 19:11 | 42.20042 | -75.42612 | 33398 ft | 478 kts | 324° |
| 2026-04-30 19:11 | 42.25778 | -75.47157 | 33738 ft | 478 kts | 324° |
| 2026-04-30 19:12 | 42.31527 | -75.51747 | 33861 ft | 480 kts | 324° |
| 2026-04-30 19:12 | 42.37242 | -75.56320 | 33860 ft | 480 kts | 324° |
| 2026-04-30 19:13 | 42.48736 | -75.65540 | 33859 ft | 480 kts | 324° |
| 2026-04-30 19:14 | 42.54487 | -75.70169 | 33882 ft | 479 kts | 324° |